Kuniki — JM6488 — position and weather

sailwx.info

Track history (hours):
 
Tides and Currents Weather Stations Pressure Air Temp Water Temp Dewpoint Dewpoint Depression Visibility Wind Speed Wind Dir Waves Ship Positions

Kuniki

Last reported at 2017-Nov-19 19:16 UTC. Time now 2017-Nov-19 19:53 UTC.
Position N 34°40' E 135°13'.

Length 76 m.

Type: Cargo ship. MMSI: 431600408.

Date/timePositionNaut miles runAvg speedWind from/ knotsBaromVisibWave heightAir tempDewpointWater temp
2017-Nov-19 19:16N 34°40' E 135°13'0 0.0
2017-Nov-19 18:58N 34°40' E 135°13'0 0.0
2017-Nov-19 18:22N 34°40' E 135°13'0 0.0
2017-Nov-19 17:34N 34°40' E 135°13'0 0.0
2017-Nov-19 17:28N 34°40' E 135°13'0 0.0
2017-Nov-19 16:58N 34°40' E 135°13'0 0.0
2017-Nov-19 16:10N 34°40' E 135°13'0 0.0
2017-Nov-19 15:58N 34°40' E 135°13'0 0.0
2017-Nov-19 15:28N 34°40' E 135°13'0 0.0
2017-Nov-19 14:52N 34°40' E 135°13'0 0.0
2017-Nov-19 14:10N 34°40' E 135°13'0 0.0
2017-Nov-19 13:34N 34°40' E 135°13'0 0.0
2017-Nov-19 13:28N 34°40' E 135°13'0 0.0
2017-Nov-19 12:58N 34°40' E 135°13'0 0.0
2017-Nov-19 12:28N 34°40' E 135°13'0 0.0
2017-Nov-19 11:52N 34°40' E 135°13'0 0.0
2017-Nov-19 11:28N 34°40' E 135°13'0 0.0
2017-Nov-19 10:58N 34°40' E 135°13'0 0.0
2017-Nov-19 10:16N 34°40' E 135°13'0 0.0
2017-Nov-19 09:58N 34°40' E 135°13'0 0.0
2017-Nov-19 09:22N 34°40' E 135°13'0 0.0
2017-Nov-19 08:58N 34°40' E 135°13'0 0.0
2017-Nov-19 08:28N 34°40' E 135°13'0 0.0
2017-Nov-19 07:52N 34°40' E 135°13'0 0.0
2017-Nov-19 07:22N 34°40' E 135°13'0 0.0
2017-Nov-19 06:58N 34°40' E 135°13'0 0.0
2017-Nov-19 06:28N 34°40' E 135°13'0 0.0
2017-Nov-19 05:58N 34°40' E 135°13'0 0.0
2017-Nov-19 05:28N 34°40' E 135°13'0 0.0
2017-Nov-19 04:46N 34°40' E 135°13'0 0.0
2017-Nov-19 04:28N 34°40' E 135°13'0 0.0
2017-Nov-19 03:58N 34°40' E 135°13'0 0.0
2017-Nov-19 03:28N 34°40' E 135°13'0 0.0
2017-Nov-19 02:58N 34°40' E 135°13'0 0.0
2017-Nov-19 02:28N 34°40' E 135°13'0 0.0
2017-Nov-19 01:58N 34°40' E 135°13'0 0.0
2017-Nov-19 01:16N 34°40' E 135°13'0 0.0
2017-Nov-19 00:58N 34°40' E 135°13'0 0.0
2017-Nov-19 00:16N 34°40' E 135°13'0 0.0
2017-Nov-18 23:58N 34°40' E 135°13'0 0.0
2017-Nov-18 23:22N 34°40' E 135°13'0 0.1
2017-Nov-18 23:00N 34°40' E 135°13'2 4.5
2017-Nov-18 22:30N 34°39' E 135°15'0 0.2
2017-Nov-18 22:00N 34°39' E 135°15'0 0.0
2017-Nov-18 21:30N 34°39' E 135°15'0 0.0
2017-Nov-18 21:00N 34°39' E 135°15'0 0.0
2017-Nov-18 20:30N 34°39' E 135°15'0 0.0
2017-Nov-18 20:00N 34°39' E 135°15'0 0.1
2017-Nov-18 19:24N 34°39' E 135°15'0 0.0
2017-Nov-18 18:48N 34°39' E 135°15'0 0.0
2017-Nov-18 18:18N 34°39' E 135°15'0 0.0
2017-Nov-18 18:00N 34°39' E 135°15'0 0.1
2017-Nov-18 17:30N 34°39' E 135°15'0 0.1
2017-Nov-18 17:00N 34°39' E 135°15'5 9.2
2017-Nov-18 16:30N 34°36' E 135°10'4 0.1
2017-Nov-17 02:33N 34°36' E 135°05'210.0
2017-Nov-17 02:18N 34°37' E 135°08'411.4
2017-Nov-17 01:57N 34°37' E 135°13'2 4.8
2017-Nov-17 01:29N 34°39' E 135°15'0 0.0
2017-Nov-17 00:59N 34°39' E 135°15'0 0.1
2017-Nov-17 00:30N 34°39' E 135°15'2 4.0
2017-Nov-16 23:55N 34°41' E 135°17'0 0.2
2017-Nov-16 23:13N 34°41' E 135°17'2 6.1
2017-Nov-16 22:53N 34°39' E 135°15'1 1.2
2017-Nov-16 22:25N 34°39' E 135°15'0 0.0
2017-Nov-16 21:55N 34°39' E 135°15'0 0.0
2017-Nov-16 21:25N 34°39' E 135°15'0 0.0
2017-Nov-16 20:49N 34°39' E 135°15'0 0.0
2017-Nov-16 20:25N 34°39' E 135°15'0 0.0
2017-Nov-16 19:49N 34°39' E 135°15'0 0.1
2017-Nov-16 19:03N 34°39' E 135°15'0 0.5
2017-Nov-16 19:00N 34°39' E 135°15'4 7.8
2017-Nov-16 18:30N 34°36' E 135°11'5 0.3
2017-Nov-16 03:31N 34°36' E 135°05'0 9.1
2017-Nov-16 03:30N 34°36' E 135°05'5 9.6
2017-Nov-16 03:00N 34°37' E 135°11'4 4.2
2017-Nov-16 02:02N 34°39' E 135°15'0 1.9
2017-Nov-16 02:00N 34°39' E 135°15'0 0.2
2017-Nov-16 01:30N 34°39' E 135°15'2 3.6
2017-Nov-16 01:00N 34°41' E 135°17'0 0.5
2017-Nov-16 00:30N 34°41' E 135°17'0 0.0
2017-Nov-16 00:00N 34°41' E 135°17'0 0.0
2017-Nov-15 23:24N 34°41' E 135°17'2 4.0
2017-Nov-15 22:59N 34°40' E 135°15'1 1.9
2017-Nov-15 22:25N 34°39' E 135°15'0 0.0
2017-Nov-15 22:01N 34°39' E 135°15'0 0.0
2017-Nov-15 20:49N 34°39' E 135°15'0 0.0
2017-Nov-15 20:25N 34°39' E 135°15'0 0.0
2017-Nov-15 19:54N 34°39' E 135°15'0 0.0
2017-Nov-15 19:25N 34°39' E 135°15'0 0.0
2017-Nov-15 19:01N 34°39' E 135°15'0 0.0
2017-Nov-15 18:31N 34°39' E 135°15'0 0.0
2017-Nov-15 17:55N 34°39' E 135°15'0 0.0
2017-Nov-15 17:13N 34°39' E 135°15'0 0.0
2017-Nov-15 17:00N 34°39' E 135°15'0 0.0
2017-Nov-15 16:30N 34°39' E 135°15'0 0.0
2017-Nov-15 16:01N 34°39' E 135°15'0 0.0
2017-Nov-15 15:30N 34°39' E 135°15'0 0.0
2017-Nov-15 15:01N 34°39' E 135°15'0 0.0
2017-Nov-15 14:30N 34°39' E 135°15'0 0.0
2017-Nov-15 13:54N 34°39' E 135°15'0 0.0
2017-Nov-15 13:30N 34°39' E 135°15'0 0.0
2017-Nov-15 12:54N 34°39' E 135°15'0 0.0
2017-Nov-15 11:24N 34°39' E 135°15'3 6.0
2017-Nov-15 10:56N 34°37' E 135°12'6 0.7
2017-Nov-15 02:09N 34°36' E 135°05'2 9.2
2017-Nov-15 01:58N 34°36' E 135°07'510.5
2017-Nov-15 01:29N 34°37' E 135°13'4 8.4
2017-Nov-15 00:59N 34°41' E 135°16'1 3.0
2017-Nov-15 00:30N 34°40' E 135°15'1 1.3
2017-Nov-14 23:59N 34°39' E 135°15'0 0.0
2017-Nov-14 23:17N 34°39' E 135°15'1 2.3
2017-Nov-14 22:58N 34°39' E 135°15'0 0.0
2017-Nov-14 22:28N 34°39' E 135°15'0 0.0
2017-Nov-14 21:52N 34°39' E 135°15'0 0.0
2017-Nov-14 21:28N 34°39' E 135°15'0 0.0
2017-Nov-14 20:52N 34°39' E 135°15'0 0.0
2017-Nov-14 20:28N 34°39' E 135°15'0 0.0
2017-Nov-14 19:46N 34°39' E 135°15'0 0.2
2017-Nov-14 19:28N 34°39' E 135°15'0 0.0
2017-Nov-14 18:58N 34°39' E 135°15'0 0.0
2017-Nov-14 18:22N 34°39' E 135°15'0 0.1
2017-Nov-14 17:46N 34°39' E 135°15'0 0.2
2017-Nov-14 17:28N 34°39' E 135°15'0 0.7
2017-Nov-14 17:00N 34°38' E 135°15'510.0
2017-Nov-14 16:30N 34°36' E 135°10'4 0.3
2017-Nov-14 01:55N 34°36' E 135°05'510.7
2017-Nov-14 01:29N 34°37' E 135°10'5 9.6
2017-Nov-14 01:00N 34°40' E 135°15'2 3.1
2017-Nov-14 00:25N 34°41' E 135°17'0 0.0
2017-Nov-13 23:55N 34°41' E 135°17'0 0.0
2017-Nov-13 23:25N 34°41' E 135°17'2 4.8
2017-Nov-13 22:59N 34°39' E 135°15'1 1.2
2017-Nov-13 22:16N 34°38' E 135°15'0 0.0
2017-Nov-13 21:58N 34°38' E 135°15'1 0.0
2017-Nov-13 01:54N 34°39' E 135°15'0 0.1
2017-Nov-13 01:29N 34°39' E 135°15'2 3.7
2017-Nov-13 00:51N 34°41' E 135°17'0 0.0
2017-Nov-12 23:17N 34°41' E 135°17'0 1.1
2017-Nov-12 22:57N 34°41' E 135°16'0 0.0
2017-Nov-12 22:27N 34°41' E 135°16'0 0.1
2017-Nov-12 21:55N 34°41' E 135°16'3 7.6
2017-Nov-12 21:30N 34°38' E 135°15'510.1
2017-Nov-12 20:59N 34°36' E 135°09'  
2017-Nov-10 07:28N 34°36' E 135°05'510.7
2017-Nov-10 07:00N 34°37' E 135°11'5 9.3
2017-Nov-10 06:31N 34°40' E 135°15'2 2.4
2017-Nov-10 05:48N 34°41' E 135°17'0 0.0
2017-Nov-10 05:24N 34°41' E 135°17'0 0.4
2017-Nov-10 05:00N 34°41' E 135°17'0 0.5
2017-Nov-10 04:30N 34°41' E 135°17'0 0.0
2017-Nov-10 02:38N 34°41' E 135°17'1 4.2
2017-Nov-10 02:30N 34°41' E 135°16'2 3.2
2017-Nov-10 01:53N 34°39' E 135°15'0 1.1
2017-Nov-10 01:28N 34°39' E 135°15'0 0.6
2017-Nov-10 00:52N 34°39' E 135°15'0 0.1
2017-Nov-10 00:18N 34°39' E 135°15'1 1.5
2017-Nov-09 23:25N 34°40' E 135°14'1 2.8
2017-Nov-09 22:55N 34°39' E 135°15'0 0.1
2017-Nov-09 22:19N 34°39' E 135°15'0 0.0
2017-Nov-09 21:55N 34°39' E 135°15'0 0.0
2017-Nov-09 21:19N 34°39' E 135°15'0 0.0
2017-Nov-09 20:55N 34°39' E 135°15'0 0.1
2017-Nov-09 20:19N 34°39' E 135°15'0 0.1
2017-Nov-09 19:55N 34°39' E 135°15'0 0.0
2017-Nov-09 19:25N 34°39' E 135°15'  
Track history (hours):
 
Tides and Currents Weather Stations Pressure Air Temp Water Temp Dewpoint Dewpoint Depression Visibility Wind Speed Wind Dir Waves Ship Positions

Kuniki

Last reported at 2017-Nov-19 19:16 UTC. Time now 2017-Nov-19 19:53 UTC.
Position N 34°40' E 135°13'.

Length 76 m.

Type: Cargo ship. MMSI: 431600408.

Date/timePositionNaut miles runAvg speedWind from/ knotsBaromVisibWave heightAir tempDewpointWater temp
2017-Nov-19 19:16N 34°40' E 135°13'0 0.0
2017-Nov-19 18:58N 34°40' E 135°13'0 0.0
2017-Nov-19 18:22N 34°40' E 135°13'0 0.0
2017-Nov-19 17:34N 34°40' E 135°13'0 0.0
2017-Nov-19 17:28N 34°40' E 135°13'0 0.0
2017-Nov-19 16:58N 34°40' E 135°13'0 0.0
2017-Nov-19 16:10N 34°40' E 135°13'0 0.0
2017-Nov-19 15:58N 34°40' E 135°13'0 0.0
2017-Nov-19 15:28N 34°40' E 135°13'0 0.0
2017-Nov-19 14:52N 34°40' E 135°13'0 0.0
2017-Nov-19 14:10N 34°40' E 135°13'0 0.0
2017-Nov-19 13:34N 34°40' E 135°13'0 0.0
2017-Nov-19 13:28N 34°40' E 135°13'0 0.0
2017-Nov-19 12:58N 34°40' E 135°13'0 0.0
2017-Nov-19 12:28N 34°40' E 135°13'0 0.0
2017-Nov-19 11:52N 34°40' E 135°13'0 0.0
2017-Nov-19 11:28N 34°40' E 135°13'0 0.0
2017-Nov-19 10:58N 34°40' E 135°13'0 0.0
2017-Nov-19 10:16N 34°40' E 135°13'0 0.0
2017-Nov-19 09:58N 34°40' E 135°13'0 0.0
2017-Nov-19 09:22N 34°40' E 135°13'0 0.0
2017-Nov-19 08:58N 34°40' E 135°13'0 0.0
2017-Nov-19 08:28N 34°40' E 135°13'0 0.0
2017-Nov-19 07:52N 34°40' E 135°13'0 0.0
2017-Nov-19 07:22N 34°40' E 135°13'0 0.0
2017-Nov-19 06:58N 34°40' E 135°13'0 0.0
2017-Nov-19 06:28N 34°40' E 135°13'0 0.0
2017-Nov-19 05:58N 34°40' E 135°13'0 0.0
2017-Nov-19 05:28N 34°40' E 135°13'0 0.0
2017-Nov-19 04:46N 34°40' E 135°13'0 0.0
2017-Nov-19 04:28N 34°40' E 135°13'0 0.0
2017-Nov-19 03:58N 34°40' E 135°13'0 0.0
2017-Nov-19 03:28N 34°40' E 135°13'0 0.0
2017-Nov-19 02:58N 34°40' E 135°13'0 0.0
2017-Nov-19 02:28N 34°40' E 135°13'0 0.0
2017-Nov-19 01:58N 34°40' E 135°13'0 0.0
2017-Nov-19 01:16N 34°40' E 135°13'0 0.0
2017-Nov-19 00:58N 34°40' E 135°13'0 0.0
2017-Nov-19 00:16N 34°40' E 135°13'0 0.0
2017-Nov-18 23:58N 34°40' E 135°13'0 0.0
2017-Nov-18 23:22N 34°40' E 135°13'0 0.1
2017-Nov-18 23:00N 34°40' E 135°13'2 4.5
2017-Nov-18 22:30N 34°39' E 135°15'0 0.2
2017-Nov-18 22:00N 34°39' E 135°15'0 0.0
2017-Nov-18 21:30N 34°39' E 135°15'0 0.0
2017-Nov-18 21:00N 34°39' E 135°15'0 0.0
2017-Nov-18 20:30N 34°39' E 135°15'0 0.0
2017-Nov-18 20:00N 34°39' E 135°15'0 0.1
2017-Nov-18 19:24N 34°39' E 135°15'0 0.0
2017-Nov-18 18:48N 34°39' E 135°15'0 0.0
2017-Nov-18 18:18N 34°39' E 135°15'0 0.0
2017-Nov-18 18:00N 34°39' E 135°15'0 0.1
2017-Nov-18 17:30N 34°39' E 135°15'0 0.1
2017-Nov-18 17:00N 34°39' E 135°15'5 9.2
2017-Nov-18 16:30N 34°36' E 135°10'4 0.1
2017-Nov-17 02:33N 34°36' E 135°05'210.0
2017-Nov-17 02:18N 34°37' E 135°08'411.4
2017-Nov-17 01:57N 34°37' E 135°13'2 4.8
2017-Nov-17 01:29N 34°39' E 135°15'0 0.0
2017-Nov-17 00:59N 34°39' E 135°15'0 0.1
2017-Nov-17 00:30N 34°39' E 135°15'2 4.0
2017-Nov-16 23:55N 34°41' E 135°17'0 0.2
2017-Nov-16 23:13N 34°41' E 135°17'2 6.1
2017-Nov-16 22:53N 34°39' E 135°15'1 1.2
2017-Nov-16 22:25N 34°39' E 135°15'0 0.0
2017-Nov-16 21:55N 34°39' E 135°15'0 0.0
2017-Nov-16 21:25N 34°39' E 135°15'0 0.0
2017-Nov-16 20:49N 34°39' E 135°15'0 0.0
2017-Nov-16 20:25N 34°39' E 135°15'0 0.0
2017-Nov-16 19:49N 34°39' E 135°15'0 0.1
2017-Nov-16 19:03N 34°39' E 135°15'0 0.5
2017-Nov-16 19:00N 34°39' E 135°15'4 7.8
2017-Nov-16 18:30N 34°36' E 135°11'5 0.3
2017-Nov-16 03:31N 34°36' E 135°05'0 9.1
2017-Nov-16 03:30N 34°36' E 135°05'5 9.6
2017-Nov-16 03:00N 34°37' E 135°11'4 4.2
2017-Nov-16 02:02N 34°39' E 135°15'0 1.9
2017-Nov-16 02:00N 34°39' E 135°15'0 0.2
2017-Nov-16 01:30N 34°39' E 135°15'2 3.6
2017-Nov-16 01:00N 34°41' E 135°17'0 0.5
2017-Nov-16 00:30N 34°41' E 135°17'0 0.0
2017-Nov-16 00:00N 34°41' E 135°17'0 0.0
2017-Nov-15 23:24N 34°41' E 135°17'2 4.0
2017-Nov-15 22:59N 34°40' E 135°15'1 1.9
2017-Nov-15 22:25N 34°39' E 135°15'0 0.0
2017-Nov-15 22:01N 34°39' E 135°15'0 0.0
2017-Nov-15 20:49N 34°39' E 135°15'0 0.0
2017-Nov-15 20:25N 34°39' E 135°15'0 0.0
2017-Nov-15 19:54N 34°39' E 135°15'0 0.0
2017-Nov-15 19:25N 34°39' E 135°15'0 0.0
2017-Nov-15 19:01N 34°39' E 135°15'0 0.0
2017-Nov-15 18:31N 34°39' E 135°15'0 0.0
2017-Nov-15 17:55N 34°39' E 135°15'0 0.0
2017-Nov-15 17:13N 34°39' E 135°15'0 0.0
2017-Nov-15 17:00N 34°39' E 135°15'0 0.0
2017-Nov-15 16:30N 34°39' E 135°15'0 0.0
2017-Nov-15 16:01N 34°39' E 135°15'0 0.0
2017-Nov-15 15:30N 34°39' E 135°15'0 0.0
2017-Nov-15 15:01N 34°39' E 135°15'0 0.0
2017-Nov-15 14:30N 34°39' E 135°15'0 0.0
2017-Nov-15 13:54N 34°39' E 135°15'0 0.0
2017-Nov-15 13:30N 34°39' E 135°15'0 0.0
2017-Nov-15 12:54N 34°39' E 135°15'0 0.0
2017-Nov-15 11:24N 34°39' E 135°15'3 6.0
2017-Nov-15 10:56N 34°37' E 135°12'6 0.7
2017-Nov-15 02:09N 34°36' E 135°05'2 9.2
2017-Nov-15 01:58N 34°36' E 135°07'510.5
2017-Nov-15 01:29N 34°37' E 135°13'4 8.4
2017-Nov-15 00:59N 34°41' E 135°16'1 3.0
2017-Nov-15 00:30N 34°40' E 135°15'1 1.3
2017-Nov-14 23:59N 34°39' E 135°15'0 0.0
2017-Nov-14 23:17N 34°39' E 135°15'1 2.3
2017-Nov-14 22:58N 34°39' E 135°15'0 0.0
2017-Nov-14 22:28N 34°39' E 135°15'0 0.0
2017-Nov-14 21:52N 34°39' E 135°15'0 0.0
2017-Nov-14 21:28N 34°39' E 135°15'0 0.0
2017-Nov-14 20:52N 34°39' E 135°15'0 0.0
2017-Nov-14 20:28N 34°39' E 135°15'0 0.0
2017-Nov-14 19:46N 34°39' E 135°15'0 0.2
2017-Nov-14 19:28N 34°39' E 135°15'0 0.0
2017-Nov-14 18:58N 34°39' E 135°15'0 0.0
2017-Nov-14 18:22N 34°39' E 135°15'0 0.1
2017-Nov-14 17:46N 34°39' E 135°15'0 0.2
2017-Nov-14 17:28N 34°39' E 135°15'0 0.7
2017-Nov-14 17:00N 34°38' E 135°15'510.0
2017-Nov-14 16:30N 34°36' E 135°10'4 0.3
2017-Nov-14 01:55N 34°36' E 135°05'510.7
2017-Nov-14 01:29N 34°37' E 135°10'5 9.6
2017-Nov-14 01:00N 34°40' E 135°15'2 3.1
2017-Nov-14 00:25N 34°41' E 135°17'0 0.0
2017-Nov-13 23:55N 34°41' E 135°17'0 0.0
2017-Nov-13 23:25N 34°41' E 135°17'2 4.8
2017-Nov-13 22:59N 34°39' E 135°15'1 1.2
2017-Nov-13 22:16N 34°38' E 135°15'0 0.0
2017-Nov-13 21:58N 34°38' E 135°15'1 0.0
2017-Nov-13 01:54N 34°39' E 135°15'0 0.1
2017-Nov-13 01:29N 34°39' E 135°15'2 3.7
2017-Nov-13 00:51N 34°41' E 135°17'0 0.0
2017-Nov-12 23:17N 34°41' E 135°17'0 1.1
2017-Nov-12 22:57N 34°41' E 135°16'0 0.0
2017-Nov-12 22:27N 34°41' E 135°16'0 0.1
2017-Nov-12 21:55N 34°41' E 135°16'3 7.6
2017-Nov-12 21:30N 34°38' E 135°15'510.1
2017-Nov-12 20:59N 34°36' E 135°09'  
2017-Nov-10 07:28N 34°36' E 135°05'510.7
2017-Nov-10 07:00N 34°37' E 135°11'5 9.3
2017-Nov-10 06:31N 34°40' E 135°15'2 2.4
2017-Nov-10 05:48N 34°41' E 135°17'0 0.0
2017-Nov-10 05:24N 34°41' E 135°17'0 0.4
2017-Nov-10 05:00N 34°41' E 135°17'0 0.5
2017-Nov-10 04:30N 34°41' E 135°17'0 0.0
2017-Nov-10 02:38N 34°41' E 135°17'1 4.2
2017-Nov-10 02:30N 34°41' E 135°16'2 3.2
2017-Nov-10 01:53N 34°39' E 135°15'0 1.1
2017-Nov-10 01:28N 34°39' E 135°15'0 0.6
2017-Nov-10 00:52N 34°39' E 135°15'0 0.1
2017-Nov-10 00:18N 34°39' E 135°15'1 1.5
2017-Nov-09 23:25N 34°40' E 135°14'1 2.8
2017-Nov-09 22:55N 34°39' E 135°15'0 0.1
2017-Nov-09 22:19N 34°39' E 135°15'0 0.0
2017-Nov-09 21:55N 34°39' E 135°15'0 0.0
2017-Nov-09 21:19N 34°39' E 135°15'0 0.0
2017-Nov-09 20:55N 34°39' E 135°15'0 0.1
2017-Nov-09 20:19N 34°39' E 135°15'0 0.1
2017-Nov-09 19:55N 34°39' E 135°15'0 0.0
2017-Nov-09 19:25N 34°39' E 135°15'  

Dump ship's entire track history